Lop Buri, Thailand

2:03 PM ICT on April 02, 2015 (GMT +0700)
Bangkok International | | Change Station
CLOSE
Current Station
Airport
Location: Bangkok (Don Mueang),
Elevation: 13 ft
Nearby Weather Stations

Elev 13 ft 13.92 °N, 100.61 °E | Updated 33 minutes ago

Scattered Clouds
Scattered Clouds
97 °F
Feels Like 101 °F
N
9
Wind Variable Wind from West

Today
High -- | Low -- °F
--% Chance of Precip.
Yesterday
High -- | Low -- °F
Precip. -- in
6:12 AM 6:29 PM
Waxing Gibbous, 96% visible
Pressure 29.74 in
Visibility 6.2 miles
Clouds Few 3000 ft
Scattered Clouds 30000 ft
Heat Index 101 °F
Dew Point 66 °F
Humidity 37%
Rainfall 0.00 in
Snow Depth Not available.
UV 13 out of 12
Pollen Not available.
Air Quality Not available.
Flu Activity Not available.
METAR VTBD 020630Z 27008KT 230V310 9999 FEW030 SCT300 36/19 Q1007 NOSIG

More Conditions Fewer Conditions

Pressure 29.74 in
Visibility 6.2 miles
Clouds Few 3000 ft
Scattered Clouds 30000 ft
Heat Index 101 °F
Dew Point 66 °F
Humidity 37%
Rainfall 0.00 in
Snow Depth Not available.
UV 13 out of 12
Pollen Not available.
Air Quality Not available.
Flu Activity Not available.
METAR VTBD 020630Z 27008KT 230V310 9999 FEW030 SCT300 36/19 Q1007 NOSIG

More Conditions Fewer Conditions

10-Day Weather Forecast

Almanac

Astronomy

Apr. 02, 2015 Rise Set
Actual Time
Civil Twilight
Nautical Twilight
Astronomical Twilight
Moon
Length of Visible Light
Length of Day
Tomorrow will be .
, % of the Moon is Illuminated

Today's Extremes

Country Highs Country Lows

Community

WunderPhotos

Upload Photos

1,810,204 photos uploaded!

WunderBlogs® & News

Nearby

Air Quality

  Air Quality AQ Index Pollutant
Not available.

Snow Depth

Station Depth Elevation

Earthquake Activity

City Distance Mag. Time & Date
Minimum magnitude displayed is 2.5.

Coastal Water Temperatures

Place Temperature

Stations

Nearby Weather Stations

Station Location Temp. Windchill Dew Point Humidity Wind Precip. Elev Updated Type